Airfield :
LOGIN :

Register | Disclaimer

   EN    FR    IT 

 










Legend :    VFR   Marginal VFR   IFR   Intensive IFR   Very Intensive IFR
Visi :
Ceiling :
>= 8 km
>= 3000ft
5 to 8 km
1000 to 3000 ft
1500m to 5 km
500 to 1000 ft
800 to 1500m
200 to 500 ft
< 800m
< 200 ft
Symbols :   Thunderstorms  Fog  Heavy snow  Heavy precipitations  Wind > 20 kt
SIGMETs :     Misc.  Thunderstorms  Icing  Turbulence  Mountain Waves  Volcanic Ashes






- Airport Elevation : 358 ft


EGTC - Cranfield

CURRENT METAR :
  • 271650Z 18009KT 9999 VCSH BKN031 05/05 Q0994

EXPIRED METARs :
  • 271620Z 18013KT 9999 VCSH FEW010 SCT038 06/05 Q0994
  • 271550Z 20011KT 9999 VCSH FEW011 BKN019 07/06 Q0995
  • 271520Z 17005KT 9999 VCSH BKN018 07/07 Q0995
  • 271450Z 18011KT 9999 VCSH FEW013 SCT031 07/06 Q0996

TAF TAF EGTC
Valid from the 27 at 15:00 until the 27 at 18:00 UTC


271404Z 2715/2718 20007KT 9999 FEW012
PROB40
TEMPO 2715/2718 7000 SHRA BKN012



MET'MAP, your aeronautical weather chart ! - Copyright ORBIFLY December 2007 - Disclaimer

ORBIFLY MET'MAP TEAM :

Programming & Development : Alexandra Zaïnal
Concept & original design : Baudouin d'Aumeries
Assistance for programming : Marc-Olivier Méhu
Technical & hardware support : Manuel Goepfert

Contact : metmap@orbifly.com




SOURCES & CREDITS :

   NOAA